Ariton, Alabama
Current Conditions -  °F | °C
As of 7:53 PM on Friday 31 Oct 2014 (Local Time) from KLOR Reporting Station
Clear Clear  
Wind Chill: 58°   Ceiling: Unl
Heat Index: 58°   Visibility: 10mi
Dew Point: 47°   Wind: 6mph
Humidity: 67%   Direction: 340°NNW
Pressure: 29.95"   Gusts: NA
Location:  31.6°N, 85.72°W
Report Text: KLOR 010053Z AUTO 34005KT 10SM CLR 14/08 A2995 RMK AO2 SLP139 T01440083 TSNO $
Loading
Personal Weather Stations






























Interactive Weather Map
Tropical Storm Tracking
New forecast layout! Learn more

10-Day Weather Forecast

Advertisements
Track Severe Weather on mobile